createdAt,value
2022-12-23T00:00:25.007Z,16.33
2022-12-23T00:02:53.323Z,16.50
2022-12-23T00:05:21.619Z,15.83
2022-12-23T00:07:49.753Z,17.33
2022-12-23T00:10:17.882Z,15.57
2022-12-23T00:13:02.964Z,15.07
2022-12-23T00:15:32.460Z,14.43
2022-12-23T00:18:00.673Z,15.93
2022-12-23T00:20:28.891Z,16.63
2022-12-23T00:23:06.223Z,14.03
2022-12-23T00:25:44.761Z,13.77
2022-12-23T00:28:14.373Z,14.10
2022-12-23T00:30:51.056Z,15.93
2022-12-23T00:33:20.999Z,14.20
2022-12-23T00:35:50.421Z,13.87
2022-12-23T00:38:40.551Z,13.43
2022-12-23T00:41:29.760Z,12.73
2022-12-23T00:43:58.064Z,12.97
2022-12-23T00:46:27.600Z,13.13
2022-12-23T00:49:13.604Z,11.63
2022-12-23T00:51:41.773Z,12.97
2022-12-23T00:54:09.982Z,12.80
2022-12-23T00:56:38.168Z,11.30
2022-12-23T00:59:06.358Z,11.90
2022-12-23T01:01:53.582Z,12.80
2022-12-23T01:04:39.668Z,8.37
2022-12-23T01:07:08.027Z,10.93
2022-12-23T01:09:36.418Z,14.30
2022-12-23T01:12:04.638Z,10.20
2022-12-23T01:14:33.046Z,10.80
2022-12-23T01:17:02.642Z,8.37
2022-12-23T01:19:30.867Z,9.17
2022-12-23T01:21:59.059Z,8.80
2022-12-23T01:24:29.364Z,7.67
2022-12-23T01:26:57.681Z,7.40
2022-12-23T01:29:26.085Z,7.67
2022-12-23T01:31:54.317Z,6.93
2022-12-23T01:34:23.924Z,7.00
2022-12-23T01:36:52.079Z,6.90
2022-12-23T01:39:20.311Z,6.47
2022-12-23T01:42:06.490Z,6.73
2022-12-23T01:44:55.498Z,6.90
2022-12-23T01:47:28.546Z,5.10
2022-12-23T01:50:01.652Z,5.70
2022-12-23T01:52:30.333Z,6.20
2022-12-23T01:54:58.920Z,5.20
2022-12-23T01:57:27.557Z,4.67
2022-12-23T02:00:13.709Z,5.33
2022-12-23T02:03:01.772Z,5.37
2022-12-23T02:05:32.011Z,5.07
2022-12-23T02:08:17.781Z,5.30
2022-12-23T02:11:01.745Z,4.87
2022-12-23T02:13:32.891Z,5.37
2022-12-23T02:16:18.031Z,6.70
2022-12-23T02:18:51.097Z,6.30
2022-12-23T02:21:27.985Z,6.97
2022-12-23T02:24:26.668Z,6.50
2022-12-23T02:27:00.855Z,5.33
2022-12-23T02:29:40.145Z,6.70
2022-12-23T02:32:12.424Z,6.63
2022-12-23T02:34:42.605Z,7.53
2022-12-23T02:37:13.620Z,7.50
2022-12-23T02:39:44.254Z,7.40
2022-12-23T02:42:14.538Z,7.67
2022-12-23T02:44:46.672Z,8.17
2022-12-23T02:47:18.567Z,7.33
2022-12-23T02:49:49.584Z,7.40
2022-12-23T02:52:20.083Z,8.20
2022-12-23T02:54:51.976Z,9.07
2022-12-23T02:57:22.246Z,7.93
2022-12-23T02:59:52.378Z,7.83
2022-12-23T03:02:22.086Z,8.47
2022-12-23T03:04:50.597Z,8.83
2022-12-23T03:07:19.860Z,8.10
2022-12-23T03:09:52.721Z,8.43
2022-12-23T03:12:24.400Z,10.70
2022-12-23T03:14:57.531Z,11.00
2022-12-23T03:17:40.550Z,11.67
2022-12-23T03:20:14.804Z,12.40
2022-12-23T03:22:48.773Z,11.80
2022-12-23T03:25:20.815Z,9.90
2022-12-23T03:28:05.437Z,12.57
2022-12-23T03:30:35.536Z,10.57
2022-12-23T03:33:06.406Z,11.73
2022-12-23T03:35:38.559Z,10.63
2022-12-23T03:38:09.135Z,10.33
2022-12-23T03:40:38.584Z,9.17
2022-12-23T03:43:09.691Z,9.47
2022-12-23T03:45:41.359Z,8.27
2022-12-23T03:48:11.985Z,9.03
2022-12-23T03:50:42.887Z,9.27
2022-12-23T03:53:14.299Z,7.90
2022-12-23T03:55:45.427Z,6.20
2022-12-23T03:58:16.012Z,6.47
2022-12-23T04:00:48.401Z,5.53
2022-12-23T04:03:19.476Z,7.90
2022-12-23T04:05:53.123Z,7.03
2022-12-23T04:08:23.924Z,5.67
2022-12-23T04:10:52.208Z,5.90
2022-12-23T04:13:20.609Z,6.13
2022-12-23T04:15:49.144Z,5.97
2022-12-23T04:18:17.499Z,5.70
2022-12-23T04:20:45.664Z,5.73
2022-12-23T04:23:15.236Z,5.70
2022-12-23T04:25:43.690Z,6.00
2022-12-23T04:28:11.920Z,6.00
2022-12-23T04:30:40.139Z,6.47
2022-12-23T04:33:08.367Z,6.23
2022-12-23T04:35:36.567Z,5.90
2022-12-23T04:38:04.845Z,6.20
2022-12-23T04:40:36.982Z,6.30
2022-12-23T04:43:05.177Z,5.90
2022-12-23T04:45:34.306Z,6.50
2022-12-23T04:48:02.489Z,6.67
2022-12-23T04:50:30.636Z,6.50
2022-12-23T04:52:58.832Z,7.00
2022-12-23T04:55:29.786Z,7.13
2022-12-23T04:57:59.268Z,7.20
2022-12-23T05:00:33.998Z,6.87
2022-12-23T05:03:06.869Z,6.97
2022-12-23T05:05:35.176Z,7.17
2022-12-23T05:08:09.100Z,7.53
2022-12-23T05:10:38.653Z,7.23
2022-12-23T05:13:21.350Z,8.13
2022-12-23T05:15:51.492Z,7.93
2022-12-23T05:18:20.865Z,7.93
2022-12-23T05:20:49.168Z,8.53
2022-12-23T05:23:35.114Z,7.97
2022-12-23T05:26:10.105Z,7.40
2022-12-23T05:28:47.155Z,7.73
2022-12-23T05:31:26.454Z,7.83
2022-12-23T05:34:06.077Z,9.10
2022-12-23T05:36:49.368Z,9.77
2022-12-23T05:39:22.051Z,10.10
2022-12-23T05:41:58.224Z,11.07
2022-12-23T05:44:29.650Z,10.47
2022-12-23T05:47:02.301Z,11.93
2022-12-23T05:49:59.866Z,11.20
2022-12-23T05:52:35.066Z,11.43
2022-12-23T05:55:09.882Z,11.40
2022-12-23T05:57:41.072Z,10.73
2022-12-23T06:00:28.805Z,10.90
2022-12-23T06:03:01.191Z,11.13
2022-12-23T06:05:42.728Z,9.70
2022-12-23T06:08:35.048Z,12.40
2022-12-23T06:11:23.244Z,10.60
2022-12-23T06:14:25.277Z,11.10
2022-12-23T06:20:24.911Z,12.50
2022-12-23T06:23:05.983Z,11.73
2022-12-23T06:29:04.640Z,10.60
2022-12-23T06:32:00.248Z,11.83
2022-12-23T06:40:59.872Z,13.47
2022-12-23T06:43:49.820Z,12.90
2022-12-23T06:46:20.801Z,13.60
2022-12-23T06:48:49.011Z,13.70
2022-12-23T06:51:18.498Z,13.47
2022-12-23T06:53:46.678Z,13.30
2022-12-23T06:56:14.847Z,14.20
2022-12-23T06:58:43.019Z,14.67
2022-12-23T07:01:11.216Z,14.60
2022-12-23T07:03:39.553Z,14.00
2022-12-23T07:06:08.046Z,14.87
2022-12-23T07:08:37.574Z,13.63
2022-12-23T07:11:06.009Z,14.60
2022-12-23T07:13:34.654Z,14.77
2022-12-23T07:16:07.044Z,15.83
2022-12-23T07:18:35.576Z,16.07
2022-12-23T07:21:04.389Z,16.30
2022-12-23T07:23:32.762Z,14.90
2022-12-23T07:26:02.229Z,15.70
2022-12-23T07:28:30.347Z,16.10
2022-12-23T07:30:58.476Z,16.60
2022-12-23T07:33:26.664Z,16.80
2022-12-23T07:35:59.200Z,17.13
2022-12-23T07:38:27.403Z,15.97
2022-12-23T07:40:55.516Z,16.60
2022-12-23T07:43:25.092Z,17.83
2022-12-23T07:45:59.622Z,16.83
2022-12-23T07:48:28.623Z,16.50
2022-12-23T07:51:01.615Z,16.33
2022-12-23T07:53:29.783Z,15.70
2022-12-23T07:55:58.328Z,14.50
2022-12-23T07:58:28.077Z,13.73
2022-12-23T08:01:00.745Z,13.87
2022-12-23T08:03:28.970Z,12.83
2022-12-23T08:06:05.755Z,11.97
2022-12-23T08:08:33.919Z,11.80
2022-12-23T08:11:02.645Z,10.63
2022-12-23T08:13:32.383Z,10.00
2022-12-23T08:16:01.590Z,9.87
2022-12-23T08:18:31.690Z,10.40
2022-12-23T08:21:00.602Z,9.47
2022-12-23T08:23:29.456Z,9.27
2022-12-23T08:26:01.452Z,8.37
2022-12-23T08:28:29.641Z,8.60
2022-12-23T08:31:04.357Z,7.37
2022-12-23T08:33:32.632Z,7.57
2022-12-23T08:36:01.008Z,8.73
2022-12-23T08:38:29.179Z,8.87
2022-12-23T08:40:57.403Z,9.03
2022-12-23T08:43:28.896Z,9.37
2022-12-23T08:46:03.271Z,9.23
2022-12-23T08:48:31.547Z,9.20
2022-12-23T08:51:03.820Z,9.03
2022-12-23T08:53:32.018Z,8.80
2022-12-23T08:56:02.961Z,9.33
2022-12-23T08:58:31.177Z,9.90
2022-12-23T09:00:59.386Z,10.60
2022-12-23T09:03:28.968Z,9.63
2022-12-23T09:05:57.153Z,10.43
2022-12-23T09:08:25.390Z,9.70
2022-12-23T09:10:53.529Z,10.80
2022-12-23T09:13:30.743Z,11.37
2022-12-23T09:16:03.001Z,11.50
2022-12-23T09:18:32.582Z,10.50
2022-12-23T09:21:01.186Z,11.33
2022-12-23T09:23:29.630Z,13.17
2022-12-23T09:25:57.854Z,11.27
2022-12-23T09:28:26.304Z,10.57
2022-12-23T09:30:54.640Z,10.87
2022-12-23T09:33:22.859Z,11.13
2022-12-23T09:35:52.426Z,11.23
2022-12-23T09:38:20.552Z,11.77
2022-12-23T09:40:48.719Z,12.37
2022-12-23T09:43:23.454Z,11.67
2022-12-23T09:45:57.895Z,11.80
2022-12-23T09:48:28.215Z,11.93
2022-12-23T09:50:57.759Z,12.53
2022-12-23T09:53:29.094Z,13.13
2022-12-23T09:56:02.089Z,13.23
2022-12-23T09:58:31.513Z,14.63
2022-12-23T10:01:04.693Z,14.07
2022-12-23T10:03:37.358Z,15.63
2022-12-23T10:06:09.415Z,16.47
2022-12-23T10:08:39.981Z,17.83
2022-12-23T10:11:09.466Z,17.87
2022-12-23T10:13:39.812Z,17.77
2022-12-23T10:16:10.481Z,18.40
2022-12-23T10:18:49.777Z,19.27
2022-12-23T10:21:22.636Z,17.63
2022-12-23T10:23:52.075Z,18.77
2022-12-23T10:26:24.038Z,18.47
2022-12-23T10:28:52.698Z,18.87
2022-12-23T10:31:39.665Z,18.27
2022-12-23T10:34:12.176Z,19.90
2022-12-23T10:36:47.748Z,19.93
2022-12-23T10:39:21.100Z,20.30
2022-12-23T10:41:52.489Z,20.67
2022-12-23T10:44:40.460Z,20.80
2022-12-23T10:47:14.256Z,21.43
2022-12-23T10:49:48.197Z,22.23
2022-12-23T10:52:19.924Z,21.33
2022-12-23T10:54:49.344Z,23.03
2022-12-23T10:57:18.648Z,21.33
2022-12-23T10:59:47.102Z,21.80
2022-12-23T11:02:34.379Z,20.93
2022-12-23T11:05:02.624Z,20.90
2022-12-23T11:07:47.595Z,22.43
2022-12-23T11:10:18.536Z,20.33
2022-12-23T11:12:47.586Z,19.63
2022-12-23T11:15:27.277Z,17.50
2022-12-23T11:17:59.806Z,18.03
2022-12-23T11:20:28.310Z,17.33
2022-12-23T11:22:59.852Z,17.47
2022-12-23T11:25:29.971Z,17.10
2022-12-23T11:27:59.532Z,15.43
2022-12-23T11:30:27.816Z,16.13
2022-12-23T11:32:56.046Z,16.03
2022-12-23T11:35:29.057Z,15.60
2022-12-23T11:37:59.187Z,15.37
2022-12-23T11:40:28.121Z,15.40
2022-12-23T11:42:58.915Z,15.83
2022-12-23T11:45:28.084Z,15.63
2022-12-23T11:47:56.398Z,16.07
2022-12-23T11:50:27.973Z,15.33
2022-12-23T11:52:57.631Z,15.33
2022-12-23T11:55:29.454Z,16.83
2022-12-23T11:57:57.881Z,16.37
2022-12-23T12:00:28.810Z,15.67
2022-12-23T12:02:58.079Z,15.87
2022-12-23T12:05:30.259Z,17.23
2022-12-23T12:08:00.500Z,17.43
2022-12-23T12:10:31.441Z,17.17
2022-12-23T12:13:01.161Z,17.40
2022-12-23T12:15:35.772Z,17.03
2022-12-23T12:18:06.421Z,16.70
2022-12-23T12:20:37.417Z,18.40
2022-12-23T12:23:08.340Z,18.53
2022-12-23T12:25:41.385Z,17.30
2022-12-23T12:28:13.465Z,19.40
2022-12-23T12:30:46.141Z,18.37
2022-12-23T12:33:18.198Z,17.40
2022-12-23T12:35:53.615Z,17.83
2022-12-23T12:38:25.827Z,17.63
2022-12-23T12:40:57.275Z,18.13
2022-12-23T12:43:30.393Z,19.17
2022-12-23T12:46:06.060Z,19.00
2022-12-23T12:48:39.433Z,19.30
2022-12-23T12:51:13.611Z,18.23
2022-12-23T12:53:44.376Z,19.23
2022-12-23T12:56:26.009Z,19.33
2022-12-23T12:58:54.897Z,20.10
2022-12-23T13:01:29.337Z,19.40
2022-12-23T13:04:09.715Z,19.77
2022-12-23T13:06:42.415Z,19.57
2022-12-23T13:09:14.449Z,18.83
2022-12-23T13:11:46.485Z,20.17
2022-12-23T13:14:20.388Z,19.33
2022-12-23T13:16:51.962Z,20.07
2022-12-23T13:19:24.543Z,18.30
2022-12-23T13:21:54.896Z,19.83
2022-12-23T13:24:25.485Z,18.33
2022-12-23T13:27:02.870Z,17.50
2022-12-23T13:29:37.250Z,18.27
2022-12-23T13:32:09.928Z,17.60
2022-12-23T13:34:46.245Z,17.40
2022-12-23T13:37:18.460Z,16.60
2022-12-23T13:39:53.812Z,15.23
2022-12-23T13:42:27.597Z,14.77
2022-12-23T13:44:56.926Z,13.93
2022-12-23T13:47:29.373Z,14.70
2022-12-23T13:50:01.147Z,12.40
2022-12-23T13:52:38.929Z,12.43
2022-12-23T13:55:17.499Z,11.23
2022-12-23T13:57:54.142Z,11.80
2022-12-23T14:00:26.772Z,11.13
2022-12-23T14:03:05.852Z,11.13
2022-12-23T14:05:35.633Z,11.70
2022-12-23T14:08:06.589Z,11.80
2022-12-23T14:10:35.187Z,11.60
2022-12-23T14:13:06.298Z,11.03
2022-12-23T14:15:48.039Z,10.67
2022-12-23T14:18:25.393Z,11.57
2022-12-23T14:20:56.541Z,11.10
2022-12-23T14:23:31.126Z,11.23
2022-12-23T14:26:11.855Z,10.87
2022-12-23T14:28:52.556Z,10.30
2022-12-23T14:31:31.883Z,11.10
2022-12-23T14:34:24.904Z,11.00
2022-12-23T14:37:11.937Z,11.93
2022-12-23T14:39:40.381Z,10.73
2022-12-23T14:42:14.987Z,10.97
2022-12-23T14:44:51.622Z,12.30
2022-12-23T14:47:31.407Z,12.83
2022-12-23T14:50:23.356Z,12.23
2022-12-23T14:53:00.820Z,12.00
2022-12-23T14:55:45.631Z,12.23
2022-12-23T14:58:32.682Z,12.53
2022-12-23T15:01:03.391Z,10.73
2022-12-23T15:03:33.701Z,9.10
2022-12-23T15:06:05.348Z,8.23
2022-12-23T15:08:35.604Z,8.50
2022-12-23T15:11:03.999Z,8.70
2022-12-23T15:13:33.478Z,7.73
2022-12-23T15:16:02.445Z,8.37
2022-12-23T15:18:30.733Z,7.80
2022-12-23T15:21:03.483Z,9.00
2022-12-23T15:23:33.297Z,9.00
2022-12-23T15:26:03.235Z,10.33
2022-12-23T15:28:36.710Z,10.50
2022-12-23T15:31:05.395Z,10.47
2022-12-23T15:34:02.404Z,9.27
2022-12-23T15:36:30.643Z,10.20
2022-12-23T15:38:59.401Z,9.27
2022-12-23T15:41:29.291Z,9.27
2022-12-23T15:44:01.732Z,9.90
2022-12-23T15:46:30.838Z,9.77
2022-12-23T15:48:59.348Z,10.10
2022-12-23T15:51:58.230Z,9.57
2022-12-23T15:54:24.622Z,9.87
2022-12-23T15:56:55.228Z,9.60
2022-12-23T15:59:25.531Z,9.17
2022-12-23T16:01:54.732Z,8.53
2022-12-23T16:04:25.967Z,8.43
2022-12-23T16:06:54.696Z,8.87
2022-12-23T16:09:42.016Z,8.77
2022-12-23T16:12:23.444Z,8.43
2022-12-23T16:14:54.336Z,8.47
2022-12-23T16:17:27.078Z,7.77
2022-12-23T16:19:56.107Z,6.73
2022-12-23T16:22:27.316Z,6.90
2022-12-23T16:25:01.016Z,4.60
2022-12-23T16:27:35.309Z,4.60
2022-12-23T16:30:04.263Z,3.10
2022-12-23T16:32:32.534Z,3.33
2022-12-23T16:35:10.583Z,2.90
2022-12-23T16:37:38.712Z,2.80
2022-12-23T16:40:14.225Z,2.80
2022-12-23T16:42:43.731Z,3.13
2022-12-23T16:45:14.261Z,3.03
2022-12-23T16:47:43.356Z,3.60
2022-12-23T16:50:14.228Z,2.33
2022-12-23T16:52:42.451Z,3.40
2022-12-23T16:55:14.757Z,2.70
2022-12-23T16:57:44.453Z,3.23
2022-12-23T17:00:16.258Z,2.90
2022-12-23T17:02:45.117Z,3.00
2022-12-23T17:05:16.865Z,2.40
2022-12-23T17:07:45.695Z,3.27
2022-12-23T17:10:14.773Z,3.13
2022-12-23T17:12:44.573Z,4.23
2022-12-23T17:15:17.375Z,3.93
2022-12-23T17:17:45.575Z,3.97
2022-12-23T17:20:14.225Z,5.47
2022-12-23T17:22:44.269Z,6.57
2022-12-23T17:25:13.561Z,5.93
2022-12-23T17:27:41.807Z,5.40
2022-12-23T17:30:15.837Z,5.83
2022-12-23T17:32:44.035Z,7.27
2022-12-23T17:35:15.816Z,7.43
2022-12-23T17:37:44.332Z,7.23
2022-12-23T17:40:13.412Z,7.93
2022-12-23T17:42:41.713Z,8.27
2022-12-23T17:45:17.376Z,6.80
2022-12-23T17:47:45.637Z,8.67
2022-12-23T17:50:13.807Z,9.33
2022-12-23T17:52:41.919Z,7.77
2022-12-23T17:55:17.353Z,7.70
2022-12-23T17:57:45.567Z,7.57
2022-12-23T18:00:22.534Z,7.70
2022-12-23T18:02:56.188Z,7.13
2022-12-23T18:05:25.145Z,7.83
2022-12-23T18:07:53.803Z,7.20
2022-12-23T18:10:22.546Z,6.73
2022-12-23T18:12:51.623Z,7.57
2022-12-23T18:15:22.757Z,7.33
2022-12-23T18:17:51.299Z,6.73
2022-12-23T18:20:20.699Z,7.47
2022-12-23T18:22:49.697Z,6.90
2022-12-23T18:25:18.712Z,7.33
2022-12-23T18:27:47.692Z,8.10
2022-12-23T18:30:16.030Z,7.93
2022-12-23T18:32:46.030Z,7.63
2022-12-23T18:35:27.997Z,7.97
2022-12-23T18:37:56.484Z,7.70
2022-12-23T18:40:30.891Z,7.33
2022-12-23T18:43:01.034Z,8.27
2022-12-23T18:45:35.358Z,6.60
2022-12-23T18:48:05.449Z,6.27
2022-12-23T18:50:33.941Z,8.50
2022-12-23T18:53:02.407Z,8.00
2022-12-23T18:55:31.261Z,8.10
2022-12-23T18:58:00.358Z,8.10
2022-12-23T19:00:29.648Z,6.37
2022-12-23T19:02:58.341Z,6.93
2022-12-23T19:05:29.225Z,7.67
2022-12-23T19:07:58.406Z,7.63
2022-12-23T19:10:28.278Z,7.63
2022-12-23T19:12:57.068Z,7.77
2022-12-23T19:15:25.528Z,7.10
2022-12-23T19:17:53.722Z,7.03
2022-12-23T19:20:22.434Z,7.60
2022-12-23T19:22:51.936Z,8.80
2022-12-23T19:25:20.949Z,6.43
2022-12-23T19:27:49.139Z,6.03
2022-12-23T19:30:17.787Z,5.63
2022-12-23T19:32:46.390Z,6.47
2022-12-23T19:35:14.963Z,5.63
2022-12-23T19:37:43.266Z,6.13
2022-12-23T19:40:13.092Z,8.07
2022-12-23T19:42:41.558Z,5.33
2022-12-23T19:45:10.527Z,5.97
2022-12-23T19:47:38.719Z,6.47
2022-12-23T19:50:07.355Z,5.73
2022-12-23T19:52:35.840Z,5.80
2022-12-23T19:55:04.090Z,5.20
2022-12-23T19:57:34.631Z,5.17
2022-12-23T20:00:02.917Z,4.10
2022-12-23T20:02:31.104Z,4.40
2022-12-23T20:04:59.348Z,4.47
2022-12-23T20:07:27.521Z,5.70
2022-12-23T20:09:55.703Z,4.53
2022-12-23T20:12:25.309Z,4.57
2022-12-23T20:14:54.889Z,3.57
2022-12-23T20:17:23.122Z,3.97
2022-12-23T20:19:51.254Z,4.33
2022-12-23T20:22:19.452Z,3.27
2022-12-23T20:24:47.682Z,4.13
2022-12-23T20:27:16.367Z,3.57
2022-12-23T20:29:45.771Z,4.57
2022-12-23T20:32:15.266Z,2.87
2022-12-23T20:34:43.522Z,3.13
2022-12-23T20:37:11.885Z,3.67
2022-12-23T20:39:40.053Z,4.30
2022-12-23T20:42:08.511Z,3.53
2022-12-23T20:44:37.630Z,3.50
2022-12-23T20:47:06.340Z,3.10
2022-12-23T20:49:35.949Z,3.77
2022-12-23T20:52:04.123Z,4.20
2022-12-23T20:54:33.857Z,4.03
2022-12-23T20:57:02.501Z,3.37
2022-12-23T20:59:30.693Z,2.67
2022-12-23T21:01:59.510Z,3.33
2022-12-23T21:04:27.893Z,2.93
2022-12-23T21:06:57.395Z,3.60
2022-12-23T21:09:25.567Z,3.50
2022-12-23T21:11:53.785Z,2.87
2022-12-23T21:14:22.014Z,3.80
2022-12-23T21:16:50.332Z,4.37
2022-12-23T21:19:19.676Z,4.37
2022-12-23T21:21:48.052Z,3.53
2022-12-23T21:24:17.798Z,2.87
2022-12-23T21:26:49.023Z,2.67
2022-12-23T21:29:22.033Z,3.73
2022-12-23T21:31:50.366Z,3.50
2022-12-23T21:34:18.580Z,3.97
2022-12-23T21:36:46.875Z,5.00
2022-12-23T21:39:16.374Z,3.40
2022-12-23T21:41:46.111Z,3.67
2022-12-23T21:44:15.542Z,3.87
2022-12-23T21:46:43.825Z,4.57
2022-12-23T21:49:12.448Z,4.83
2022-12-23T21:51:41.775Z,3.90
2022-12-23T21:54:10.946Z,3.77
2022-12-23T21:56:39.522Z,4.10
2022-12-23T21:59:10.486Z,4.83
2022-12-23T22:01:38.697Z,4.20
2022-12-23T22:04:07.113Z,5.17
2022-12-23T22:06:36.543Z,4.50
2022-12-23T22:09:05.350Z,4.70
2022-12-23T22:11:34.900Z,4.20
2022-12-23T22:14:03.612Z,5.13
2022-12-23T22:16:33.443Z,4.93
2022-12-23T22:19:02.700Z,4.33
2022-12-23T22:21:31.856Z,4.30
2022-12-23T22:24:00.460Z,4.47
2022-12-23T22:26:29.463Z,3.33
2022-12-23T22:28:58.286Z,4.20
2022-12-23T22:31:30.864Z,4.00
2022-12-23T22:34:00.422Z,4.10
2022-12-23T22:36:28.691Z,3.97
2022-12-23T22:38:58.085Z,4.53
2022-12-23T22:41:27.843Z,4.20
2022-12-23T22:43:56.458Z,5.13
2022-12-23T22:46:25.389Z,4.37
2022-12-23T22:48:53.844Z,4.53
2022-12-23T22:51:24.132Z,4.57
2022-12-23T22:53:52.408Z,5.50
2022-12-23T22:56:21.626Z,5.53
2022-12-23T22:58:49.979Z,5.47
2022-12-23T23:01:21.255Z,6.43
2022-12-23T23:03:51.013Z,5.23
2022-12-23T23:06:19.442Z,4.80
2022-12-23T23:08:48.961Z,4.40
2022-12-23T23:11:17.136Z,5.63
2022-12-23T23:13:45.262Z,7.10
2022-12-23T23:16:13.536Z,5.33
2022-12-23T23:18:41.779Z,6.73
2022-12-23T23:21:10.588Z,5.83
2022-12-23T23:23:38.761Z,5.37
2022-12-23T23:26:10.241Z,5.13
2022-12-23T23:28:39.364Z,5.73
2022-12-23T23:31:40.651Z,5.93
2022-12-23T23:33:57.603Z,5.70
2022-12-23T23:36:25.821Z,5.63
2022-12-23T23:38:54.084Z,6.03
2022-12-23T23:41:24.241Z,5.17
2022-12-23T23:43:52.609Z,5.03
2022-12-23T23:46:21.238Z,5.07
2022-12-23T23:48:49.426Z,5.57
2022-12-23T23:51:17.600Z,6.87
2022-12-23T23:53:45.782Z,5.87
2022-12-23T23:56:13.959Z,4.80
2022-12-23T23:58:43.481Z,5.87
